createdAt,value
2023-04-11T00:00:54.891Z,15.61
2023-04-11T00:03:22.403Z,15.33
2023-04-11T00:05:49.115Z,14.01
2023-04-11T00:08:15.670Z,15.02
2023-04-11T00:10:43.215Z,15.02
2023-04-11T00:13:11.394Z,13.32
2023-04-11T00:15:39.323Z,14.77
2023-04-11T00:18:06.675Z,14.64
2023-04-11T00:20:33.259Z,14.03
2023-04-11T00:22:59.708Z,14.62
2023-04-11T00:25:27.017Z,15.10
2023-04-11T00:27:54.060Z,15.08
2023-04-11T00:30:20.549Z,15.28
2023-04-11T00:32:47.744Z,15.07
2023-04-11T00:35:14.223Z,15.00
2023-04-11T00:37:44.158Z,15.15
2023-04-11T00:40:12.500Z,15.26
2023-04-11T00:42:39.696Z,15.17
2023-04-11T00:45:06.933Z,14.75
2023-04-11T00:47:34.315Z,14.83
2023-04-11T00:50:01.295Z,14.69
2023-04-11T00:52:27.876Z,14.75
2023-04-11T00:54:54.391Z,14.02
2023-04-11T00:57:22.743Z,13.64
2023-04-11T00:59:49.333Z,13.63
2023-04-11T01:02:15.843Z,13.81
2023-04-11T01:04:43.291Z,14.01
2023-04-11T01:07:11.142Z,13.44
2023-04-11T01:09:38.950Z,12.65
2023-04-11T01:12:06.392Z,13.45
2023-04-11T01:14:32.846Z,13.34
2023-04-11T01:17:01.991Z,13.25
2023-04-11T01:19:29.665Z,13.36
2023-04-11T01:21:57.840Z,13.76
2023-04-11T01:24:24.461Z,13.09
2023-04-11T01:26:51.968Z,13.03
2023-04-11T01:29:18.496Z,13.64
2023-04-11T01:31:45.361Z,13.16
2023-04-11T01:34:14.346Z,13.71
2023-04-11T01:36:42.359Z,13.65
2023-04-11T01:39:08.991Z,13.73
2023-04-11T01:41:35.958Z,13.64
2023-04-11T01:44:04.157Z,13.65
2023-04-11T01:46:31.163Z,13.61
2023-04-11T01:49:01.479Z,14.06
2023-04-11T01:51:28.440Z,13.66
2023-04-11T01:53:55.279Z,14.15
2023-04-11T01:56:22.100Z,14.21
2023-04-11T01:58:48.712Z,14.02
2023-04-11T02:01:19.409Z,14.02
2023-04-11T02:03:46.411Z,13.93
2023-04-11T02:06:13.101Z,14.21
2023-04-11T02:08:39.568Z,13.92
2023-04-11T02:11:08.082Z,13.61
2023-04-11T02:13:35.452Z,13.46
2023-04-11T02:16:11.406Z,13.68
2023-04-11T02:18:38.148Z,13.89
2023-04-11T02:21:05.939Z,13.87
2023-04-11T02:23:32.718Z,13.98
2023-04-11T02:25:59.214Z,13.65
2023-04-11T02:28:25.646Z,13.35
2023-04-11T02:30:52.237Z,13.82
2023-04-11T02:33:19.365Z,12.91
2023-04-11T02:35:46.838Z,13.43
2023-04-11T02:38:13.756Z,13.74
2023-04-11T02:40:40.631Z,13.73
2023-04-11T02:43:07.168Z,13.61
2023-04-11T02:45:33.563Z,13.68
2023-04-11T02:48:00.012Z,13.41
2023-04-11T02:50:27.060Z,13.53
2023-04-11T02:52:53.989Z,13.56
2023-04-11T02:55:23.183Z,13.73
2023-04-11T02:57:50.570Z,13.81
2023-04-11T03:00:19.267Z,13.71
2023-04-11T03:02:45.946Z,13.83
2023-04-11T03:05:12.851Z,13.56
2023-04-11T03:07:40.507Z,13.15
2023-04-11T03:10:07.791Z,13.45
2023-04-11T03:12:34.254Z,13.08
2023-04-11T03:15:00.664Z,13.42
2023-04-11T03:17:27.151Z,13.48
2023-04-11T03:19:53.560Z,13.25
2023-04-11T03:22:20.030Z,13.31
2023-04-11T03:24:46.975Z,13.10
2023-04-11T03:27:13.393Z,12.78
2023-04-11T03:29:39.816Z,12.38
2023-04-11T03:32:06.493Z,12.23
2023-04-11T03:34:33.042Z,13.05
2023-04-11T03:36:59.460Z,13.24
2023-04-11T03:39:25.904Z,12.87
2023-04-11T03:41:52.399Z,12.52
2023-04-11T03:44:18.809Z,11.98
2023-04-11T03:46:45.377Z,13.08
2023-04-11T03:49:11.849Z,12.87
2023-04-11T03:51:38.286Z,12.86
2023-04-11T03:54:04.751Z,12.38
2023-04-11T03:56:31.147Z,12.61
2023-04-11T03:58:57.704Z,11.83
2023-04-11T04:01:24.242Z,12.44
2023-04-11T04:03:50.928Z,11.64
2023-04-11T04:06:17.612Z,11.61
2023-04-11T04:08:44.601Z,12.18
2023-04-11T04:11:11.070Z,12.60
2023-04-11T04:13:37.502Z,12.61
2023-04-11T04:16:04.361Z,12.53
2023-04-11T04:18:30.881Z,12.66
2023-04-11T04:20:57.296Z,11.66
2023-04-11T04:23:23.886Z,12.39
2023-04-11T04:25:51.329Z,12.45
2023-04-11T04:28:20.476Z,12.27
2023-04-11T04:30:53.982Z,12.35
2023-04-11T04:33:21.584Z,12.54
2023-04-11T04:35:48.264Z,12.54
2023-04-11T04:38:17.607Z,13.05
2023-04-11T04:40:44.386Z,13.16
2023-04-11T04:43:18.388Z,12.50
2023-04-11T04:45:45.500Z,12.71
2023-04-11T04:48:15.345Z,12.18
2023-04-11T04:50:41.786Z,12.15
2023-04-11T04:53:08.253Z,12.51
2023-04-11T04:55:35.502Z,12.36
2023-04-11T04:58:01.909Z,11.98
2023-04-11T05:00:28.344Z,12.69
2023-04-11T05:02:55.081Z,11.45
2023-04-11T05:05:21.720Z,11.49
2023-04-11T05:07:48.370Z,12.65
2023-04-11T05:10:14.822Z,12.80
2023-04-11T05:12:41.214Z,12.35
2023-04-11T05:15:11.505Z,12.53
2023-04-11T05:17:38.467Z,10.95
2023-04-11T05:20:07.233Z,12.05
2023-04-11T05:22:33.667Z,12.04
2023-04-11T05:25:01.032Z,11.87
2023-04-11T05:27:27.474Z,11.01
2023-04-11T05:29:54.305Z,10.02
2023-04-11T05:32:20.796Z,10.16
2023-04-11T05:34:58.153Z,9.74
2023-04-11T05:37:26.002Z,10.50
2023-04-11T05:39:52.758Z,11.35
2023-04-11T05:42:19.250Z,10.88
2023-04-11T05:44:45.757Z,10.32
2023-04-11T05:47:12.209Z,10.64
2023-04-11T05:49:38.631Z,10.37
2023-04-11T05:52:05.183Z,10.83
2023-04-11T05:54:33.576Z,11.26
2023-04-11T05:57:01.881Z,10.59
2023-04-11T05:59:31.700Z,10.83
2023-04-11T06:01:59.010Z,10.76
2023-04-11T06:04:26.038Z,11.35
2023-04-11T06:06:53.693Z,11.20
2023-04-11T06:09:20.440Z,11.55
2023-04-11T06:11:46.915Z,10.94
2023-04-11T06:14:13.363Z,11.73
2023-04-11T06:16:40.047Z,11.49
2023-04-11T06:19:06.771Z,11.83
2023-04-11T06:21:33.254Z,12.20
2023-04-11T06:24:05.667Z,12.51
2023-04-11T06:26:32.138Z,12.87
2023-04-11T06:28:58.637Z,12.84
2023-04-11T06:31:25.540Z,13.40
2023-04-11T06:33:51.997Z,13.87
2023-04-11T06:36:18.532Z,14.03
2023-04-11T06:38:45.215Z,14.03
2023-04-11T06:41:11.628Z,14.44
2023-04-11T06:43:38.110Z,14.27
2023-04-11T06:46:07.927Z,14.54
2023-04-11T06:48:34.529Z,13.70
2023-04-11T06:51:01.075Z,14.33
2023-04-11T06:53:27.626Z,14.58
2023-04-11T06:55:54.142Z,13.53
2023-04-11T06:58:20.648Z,13.26
2023-04-11T07:00:47.079Z,13.23
2023-04-11T07:03:14.032Z,13.37
2023-04-11T07:05:40.955Z,13.28
2023-04-11T07:08:07.416Z,12.95
2023-04-11T07:10:33.836Z,13.25
2023-04-11T07:13:00.284Z,12.69
2023-04-11T07:15:27.715Z,11.31
2023-04-11T07:17:54.328Z,11.51
2023-04-11T07:20:20.901Z,11.69
2023-04-11T07:22:47.357Z,10.10
2023-04-11T07:25:14.167Z,8.61
2023-04-11T07:27:43.700Z,8.57
2023-04-11T07:30:10.647Z,8.42
2023-04-11T07:32:37.186Z,8.90
2023-04-11T07:35:03.833Z,8.65
2023-04-11T07:37:30.941Z,8.76
2023-04-11T07:39:57.383Z,8.40
2023-04-11T07:42:23.812Z,8.34
2023-04-11T07:44:50.221Z,9.06
2023-04-11T07:47:16.712Z,9.50
2023-04-11T07:49:43.179Z,9.15
2023-04-11T07:52:10.815Z,9.07
2023-04-11T07:54:38.980Z,9.07
2023-04-11T07:57:05.537Z,9.08
2023-04-11T07:59:31.988Z,9.22
2023-04-11T08:02:01.106Z,9.08
2023-04-11T08:04:32.523Z,9.35
2023-04-11T08:06:59.266Z,10.14
2023-04-11T08:09:26.527Z,9.93
2023-04-11T08:11:53.429Z,9.51
2023-04-11T08:14:19.866Z,10.58
2023-04-11T08:16:46.306Z,9.75
2023-04-11T08:19:13.131Z,10.07
2023-04-11T08:21:39.668Z,10.83
2023-04-11T08:24:06.321Z,11.05
2023-04-11T08:26:32.811Z,10.25
2023-04-11T08:28:59.260Z,10.50
2023-04-11T08:31:26.872Z,10.73
2023-04-11T08:33:53.358Z,10.03
2023-04-11T08:36:20.024Z,11.23
2023-04-11T08:38:46.554Z,11.39
2023-04-11T08:41:14.382Z,11.76
2023-04-11T08:43:40.890Z,11.67
2023-04-11T08:46:08.276Z,11.62
2023-04-11T08:48:34.940Z,12.03
2023-04-11T08:51:01.844Z,11.85
2023-04-11T08:53:30.125Z,11.23
2023-04-11T08:55:56.622Z,11.86
2023-04-11T08:58:23.112Z,12.01
2023-04-11T09:00:49.548Z,11.88
2023-04-11T09:03:17.170Z,11.81
2023-04-11T09:05:46.300Z,12.90
2023-04-11T09:08:14.678Z,12.45
2023-04-11T09:10:45.236Z,11.57
2023-04-11T09:13:31.965Z,12.73
2023-04-11T09:16:14.503Z,12.55
2023-04-11T09:18:44.280Z,13.05
2023-04-11T09:21:13.195Z,12.51
2023-04-11T09:23:39.637Z,12.29
2023-04-11T09:26:07.971Z,12.06
2023-04-11T09:28:44.532Z,12.54
2023-04-11T09:31:13.089Z,12.05
2023-04-11T09:33:51.751Z,12.09
2023-04-11T09:36:23.061Z,12.17
2023-04-11T09:38:49.608Z,12.44
2023-04-11T09:41:29.772Z,12.49
2023-04-11T09:43:56.519Z,12.67
2023-04-11T09:46:23.768Z,12.00
2023-04-11T09:48:52.237Z,12.61
2023-04-11T09:51:31.737Z,13.18
2023-04-11T09:54:03.367Z,14.00
2023-04-11T09:56:31.063Z,12.82
2023-04-11T09:58:59.947Z,13.05
2023-04-11T10:01:27.311Z,12.95
2023-04-11T10:03:55.683Z,13.09
2023-04-11T10:06:34.118Z,12.91
2023-04-11T10:09:12.223Z,13.63
2023-04-11T10:11:43.291Z,13.89
2023-04-11T10:14:29.991Z,12.74
2023-04-11T10:17:16.922Z,14.11
2023-04-11T10:19:45.618Z,13.65
2023-04-11T10:22:41.044Z,12.88
2023-04-11T10:25:20.500Z,13.93
2023-04-11T10:27:57.057Z,14.29
2023-04-11T10:30:43.732Z,14.39
2023-04-11T10:33:17.370Z,14.26
2023-04-11T10:36:11.379Z,14.21
2023-04-11T10:38:43.873Z,13.96
2023-04-11T10:41:33.327Z,14.66
2023-04-11T10:44:32.222Z,13.99
2023-04-11T10:46:58.805Z,13.70
2023-04-11T10:49:32.798Z,12.70
2023-04-11T10:52:21.768Z,10.96
2023-04-11T10:54:53.266Z,12.78
2023-04-11T10:57:21.109Z,11.69
2023-04-11T10:59:50.454Z,11.30
2023-04-11T11:02:17.204Z,12.45
2023-04-11T11:04:43.810Z,11.92
2023-04-11T11:07:16.950Z,13.13
2023-04-11T11:09:49.207Z,12.59
2023-04-11T11:12:16.825Z,13.05
2023-04-11T11:14:45.183Z,13.61
2023-04-11T11:17:13.199Z,14.09
2023-04-11T11:19:47.088Z,13.93
2023-04-11T11:22:16.696Z,13.96
2023-04-11T11:24:43.128Z,13.43
2023-04-11T11:27:23.993Z,13.34
2023-04-11T11:29:51.497Z,12.82
2023-04-11T11:32:28.526Z,13.44
2023-04-11T11:34:57.371Z,13.97
2023-04-11T11:37:24.012Z,14.18
2023-04-11T11:39:50.863Z,15.18
2023-04-11T11:42:18.059Z,13.84
2023-04-11T11:44:44.497Z,13.55
2023-04-11T11:47:14.913Z,13.74
2023-04-11T11:49:49.448Z,13.62
2023-04-11T11:52:41.844Z,13.81
2023-04-11T11:55:29.159Z,14.67
2023-04-11T11:58:00.879Z,14.87
2023-04-11T12:00:29.032Z,14.78
2023-04-11T12:02:56.848Z,14.72
2023-04-11T12:05:33.077Z,13.83
2023-04-11T12:08:05.202Z,14.04
2023-04-11T12:10:47.623Z,14.66
2023-04-11T12:13:21.217Z,14.51
2023-04-11T12:16:06.285Z,14.44
2023-04-11T12:18:33.484Z,14.74
2023-04-11T12:20:59.917Z,15.04
2023-04-11T12:23:26.357Z,14.67
2023-04-11T12:25:52.900Z,15.38
2023-04-11T12:28:19.372Z,15.48
2023-04-11T12:30:45.931Z,14.90
2023-04-11T12:33:12.393Z,15.08
2023-04-11T12:35:38.824Z,14.54
2023-04-11T12:38:06.458Z,15.14
2023-04-11T12:40:32.889Z,15.56
2023-04-11T12:42:59.544Z,16.34
2023-04-11T12:45:26.472Z,15.99
2023-04-11T12:47:53.454Z,15.42
2023-04-11T12:50:22.761Z,15.55
2023-04-11T12:52:49.319Z,15.22
2023-04-11T12:55:16.041Z,15.90
2023-04-11T12:57:43.669Z,14.60
2023-04-11T13:00:11.559Z,14.82
2023-04-11T13:02:43.871Z,13.87
2023-04-11T13:05:15.361Z,15.08
2023-04-11T13:07:44.673Z,15.05
2023-04-11T13:10:11.941Z,14.40
2023-04-11T13:12:43.771Z,14.65
2023-04-11T13:15:15.277Z,14.71
2023-04-11T13:17:42.469Z,15.44
2023-04-11T13:20:10.604Z,14.98
2023-04-11T13:22:38.210Z,15.00
2023-04-11T13:25:05.280Z,15.61
2023-04-11T13:27:32.112Z,14.39
2023-04-11T13:29:58.644Z,15.23
2023-04-11T13:32:25.115Z,15.11
2023-04-11T13:34:51.639Z,14.67
2023-04-11T13:37:18.087Z,15.56
2023-04-11T13:39:44.612Z,15.19
2023-04-11T13:42:12.612Z,15.20
2023-04-11T13:44:39.149Z,15.35
2023-04-11T13:47:06.062Z,14.89
2023-04-11T13:49:32.467Z,13.86
2023-04-11T13:51:58.888Z,15.16
2023-04-11T13:54:26.145Z,14.41
2023-04-11T13:56:52.615Z,14.37
2023-04-11T13:59:19.115Z,13.29
2023-04-11T14:01:45.760Z,12.98
2023-04-11T14:04:12.445Z,10.96
2023-04-11T14:06:39.793Z,11.76
2023-04-11T14:09:06.333Z,10.43
2023-04-11T14:11:32.749Z,10.12
2023-04-11T14:13:59.182Z,10.26
2023-04-11T14:16:25.669Z,9.40
2023-04-11T14:18:52.153Z,9.72
2023-04-11T14:21:18.927Z,9.67
2023-04-11T14:23:45.466Z,11.22
2023-04-11T14:26:11.931Z,11.49
2023-04-11T14:28:38.418Z,11.64
2023-04-11T14:31:05.237Z,11.43
2023-04-11T14:33:32.256Z,12.02
2023-04-11T14:35:58.698Z,12.42
2023-04-11T14:38:25.319Z,12.57
2023-04-11T14:40:51.746Z,12.08
2023-04-11T14:43:18.270Z,12.46
2023-04-11T14:45:44.740Z,12.16
2023-04-11T14:48:11.665Z,12.72
2023-04-11T14:50:38.183Z,12.85
2023-04-11T14:53:04.600Z,12.65
2023-04-11T14:55:31.219Z,13.16
2023-04-11T14:57:57.758Z,12.45
2023-04-11T15:00:24.832Z,12.05
2023-04-11T15:02:57.231Z,11.94
2023-04-11T15:05:24.461Z,11.54
2023-04-11T15:07:52.247Z,12.12
2023-04-11T15:10:21.054Z,12.22
2023-04-11T15:12:47.807Z,11.74
2023-04-11T15:15:14.726Z,12.16
2023-04-11T15:17:43.617Z,11.80
2023-04-11T15:20:11.791Z,12.33
2023-04-11T15:22:43.373Z,12.55
2023-04-11T15:25:15.465Z,12.40
2023-04-11T15:27:42.677Z,12.62
2023-04-11T15:30:10.335Z,11.54
2023-04-11T15:32:42.075Z,10.69
2023-04-11T15:35:09.144Z,11.20
2023-04-11T15:37:35.645Z,11.08
2023-04-11T15:40:05.898Z,11.27
2023-04-11T15:42:35.139Z,11.35
2023-04-11T15:45:01.909Z,11.40
2023-04-11T15:47:28.608Z,12.04
2023-04-11T15:49:55.052Z,12.64
2023-04-11T15:52:21.512Z,12.28
2023-04-11T15:54:47.928Z,12.68
2023-04-11T15:57:14.358Z,12.15
2023-04-11T15:59:41.478Z,11.96
2023-04-11T16:02:08.004Z,12.12
2023-04-11T16:04:38.415Z,12.65
2023-04-11T16:07:06.597Z,12.31
2023-04-11T16:09:33.870Z,12.38
2023-04-11T16:12:01.326Z,12.51
2023-04-11T16:14:29.248Z,12.68
2023-04-11T16:16:57.327Z,12.34
2023-04-11T16:19:24.084Z,12.75
2023-04-11T16:21:50.653Z,13.03
2023-04-11T16:24:18.816Z,13.11
2023-04-11T16:26:45.373Z,13.03
2023-04-11T16:29:11.775Z,13.37
2023-04-11T16:31:38.385Z,12.75
2023-04-11T16:34:04.832Z,12.40
2023-04-11T16:36:32.907Z,13.02
2023-04-11T16:38:59.350Z,12.55
2023-04-11T16:41:26.024Z,13.32
2023-04-11T16:43:52.450Z,12.89
2023-04-11T16:46:19.227Z,13.17
2023-04-11T16:48:45.728Z,13.16
2023-04-11T16:51:13.237Z,13.24
2023-04-11T16:53:40.699Z,13.11
2023-04-11T16:56:07.391Z,13.49
2023-04-11T16:58:33.918Z,13.70
2023-04-11T17:01:01.577Z,13.53
2023-04-11T17:03:28.415Z,13.33
2023-04-11T17:05:55.178Z,13.67
2023-04-11T17:08:21.693Z,13.37
2023-04-11T17:10:48.231Z,13.74
2023-04-11T17:13:15.895Z,13.78
2023-04-11T17:15:42.390Z,13.83
2023-04-11T17:18:08.955Z,13.87
2023-04-11T17:20:36.044Z,13.52
2023-04-11T17:23:02.545Z,13.64
2023-04-11T17:25:30.027Z,13.50
2023-04-11T17:27:57.306Z,12.98
2023-04-11T17:30:23.755Z,13.56
2023-04-11T17:32:50.210Z,13.71
2023-04-11T17:35:16.666Z,13.56
2023-04-11T17:37:43.082Z,13.52
2023-04-11T17:40:13.113Z,13.40
2023-04-11T17:42:40.509Z,13.30
2023-04-11T17:51:09.036Z,13.24
2023-04-11T17:53:35.824Z,13.29
2023-04-11T17:56:08.390Z,13.29
2023-04-11T17:58:40.075Z,13.36
2023-04-11T18:01:09.046Z,13.28
2023-04-11T18:03:39.668Z,13.26
2023-04-11T18:06:10.956Z,13.26
2023-04-11T18:11:09.619Z,13.27
2023-04-11T18:13:36.119Z,13.14
2023-04-11T18:16:02.545Z,12.95
2023-04-11T18:18:29.013Z,12.96
2023-04-11T18:21:01.521Z,12.97
2023-04-11T18:23:40.123Z,12.83
2023-04-11T18:26:09.375Z,12.81
2023-04-11T18:28:38.852Z,12.81
2023-04-11T18:31:11.906Z,12.61
2023-04-11T18:33:42.850Z,12.64
2023-04-11T18:36:09.782Z,12.62
2023-04-11T18:38:39.501Z,12.73
2023-04-11T18:41:08.896Z,12.78
2023-04-11T18:43:39.034Z,12.70
2023-04-11T18:46:09.616Z,12.32
2023-04-11T18:48:36.444Z,12.57
2023-04-11T18:51:04.841Z,12.54
2023-04-11T18:53:31.314Z,12.50
2023-04-11T18:55:58.059Z,11.96
2023-04-11T18:58:26.100Z,12.08
2023-04-11T19:00:53.731Z,11.47
2023-04-11T19:03:20.924Z,11.69
2023-04-11T19:05:48.146Z,12.00
2023-04-11T19:08:14.783Z,11.80
2023-04-11T19:10:41.235Z,11.68
2023-04-11T19:13:07.746Z,11.60
2023-04-11T19:15:34.200Z,11.64
2023-04-11T19:18:01.621Z,11.37
2023-04-11T19:20:29.340Z,11.48
2023-04-11T19:22:55.753Z,11.51
2023-04-11T19:25:22.233Z,11.48
2023-04-11T19:27:48.939Z,11.25
2023-04-11T19:30:15.383Z,11.12
2023-04-11T19:32:43.905Z,11.10
2023-04-11T19:35:11.316Z,11.00
2023-04-11T19:37:38.393Z,10.83
2023-04-11T19:40:13.683Z,10.56
2023-04-11T19:42:40.519Z,10.15
2023-04-11T19:45:09.571Z,10.63
2023-04-11T19:47:36.231Z,11.06
2023-04-11T19:50:02.901Z,11.09
2023-04-11T19:52:29.382Z,10.92
2023-04-11T19:54:56.787Z,10.93
2023-04-11T19:57:25.513Z,10.52
2023-04-11T19:59:51.955Z,10.76
2023-04-11T20:02:18.591Z,10.45
2023-04-11T20:04:45.828Z,10.44
2023-04-11T20:07:12.631Z,10.05
2023-04-11T20:09:39.054Z,10.22
2023-04-11T20:12:06.627Z,10.11
2023-04-11T20:14:33.418Z,9.92
2023-04-11T20:16:59.951Z,9.86
2023-04-11T20:19:31.542Z,9.96
2023-04-11T20:22:00.484Z,9.88
2023-04-11T20:24:27.702Z,9.89
2023-04-11T20:26:54.362Z,9.72
2023-04-11T20:29:21.164Z,9.65
2023-04-11T20:31:47.592Z,9.89
2023-04-11T20:34:13.989Z,9.80
2023-04-11T20:36:40.537Z,9.72
2023-04-11T20:39:07.035Z,9.60
2023-04-11T20:41:33.921Z,9.62
2023-04-11T20:44:00.533Z,9.76
2023-04-11T20:47:12.864Z,9.47
2023-04-11T20:49:56.081Z,9.56
2023-04-11T20:55:49.092Z,9.44
2023-04-11T20:58:18.523Z,9.51
2023-04-11T21:00:45.021Z,9.71
2023-04-11T21:03:11.663Z,9.55
2023-04-11T21:05:39.985Z,9.45
2023-04-11T21:08:06.850Z,9.29
2023-04-11T21:10:33.292Z,9.63
2023-04-11T21:12:59.695Z,9.27
2023-04-11T21:15:26.126Z,9.47
2023-04-11T21:17:52.739Z,9.53
2023-04-11T21:20:20.184Z,9.01
2023-04-11T21:22:52.799Z,9.25
2023-04-11T21:25:19.742Z,9.44
2023-04-11T21:27:46.643Z,9.33
2023-04-11T21:30:14.402Z,9.19
2023-04-11T21:32:41.049Z,9.27
2023-04-11T21:35:11.343Z,9.53
2023-04-11T21:37:38.392Z,9.57
2023-04-11T21:40:05.474Z,9.39
2023-04-11T21:42:31.910Z,9.47
2023-04-11T21:44:58.381Z,9.53
2023-04-11T21:47:24.876Z,9.07
2023-04-11T21:49:51.329Z,9.20
2023-04-11T21:52:17.818Z,8.87
2023-04-11T21:54:44.265Z,9.07
2023-04-11T21:57:10.939Z,9.14
2023-04-11T21:59:39.115Z,9.18
2023-04-11T22:02:06.461Z,8.89
2023-04-11T22:05:09.192Z,8.92
2023-04-11T22:07:46.171Z,8.79
2023-04-11T22:10:12.949Z,8.50
2023-04-11T22:12:40.204Z,8.55
2023-04-11T22:15:07.681Z,8.15
2023-04-11T22:17:34.860Z,8.49
2023-04-11T22:20:01.365Z,8.31
2023-04-11T22:22:28.637Z,8.33
2023-04-11T22:28:18.203Z,8.47
2023-04-11T22:31:12.016Z,8.04
2023-04-11T22:33:38.422Z,8.27
2023-04-11T22:36:11.631Z,8.22
2023-04-11T22:38:38.224Z,8.45
2023-04-11T22:41:04.789Z,8.41
2023-04-11T22:43:31.512Z,8.32
2023-04-11T22:45:57.964Z,8.47
2023-04-11T22:48:29.669Z,8.22
2023-04-11T22:50:59.108Z,7.98
2023-04-11T22:53:25.983Z,8.27
2023-04-11T22:55:52.420Z,8.87
2023-04-11T22:58:28.073Z,9.02
2023-04-11T23:01:03.489Z,9.11
2023-04-11T23:03:30.077Z,8.96
2023-04-11T23:05:56.463Z,8.86
2023-04-11T23:08:22.885Z,8.94
2023-04-11T23:11:24.814Z,8.75
2023-04-11T23:13:52.634Z,8.77
2023-04-11T23:16:19.345Z,8.82
2023-04-11T23:18:45.770Z,8.72
2023-04-11T23:21:15.234Z,8.20
2023-04-11T23:23:41.728Z,8.32
2023-04-11T23:26:08.246Z,8.55
2023-04-11T23:28:34.660Z,8.25
2023-04-11T23:31:01.436Z,8.24
2023-04-11T23:33:27.959Z,8.34
2023-04-11T23:35:54.510Z,8.05
2023-04-11T23:38:21.429Z,7.87
2023-04-11T23:40:53.878Z,7.97
2023-04-11T23:43:20.281Z,7.66
2023-04-11T23:45:47.209Z,7.95
2023-04-11T23:48:13.675Z,8.15
2023-04-11T23:50:40.876Z,7.89
2023-04-11T23:53:08.249Z,8.32
2023-04-11T23:55:35.159Z,8.05
2023-04-11T23:58:01.671Z,8.07
